MBW weather

Melbourne Moorabbin Airport
Melbourne, Victoria, Australia

Public forecast

Using degrees Celsius for public forecast. Weather courtesy of forecast.io.

METAR (pilot weather report)

Closest report is Melbourne Essendon Airport, 17.6 nm (32.7 km) NNW. Retrieved 2018/07/19 01:30 UTC (0 seconds ago):

YMEN 190130Z AUTO 36020G31KT 9999 // NCD 13/03 Q1006

TAF (pilot weather forecast)

Forecast is more than 12 hours old.

Closest forecast is Melbourne International Airport, 21.9 nm (40.6 km) NW. Retrieved 2018/07/18 00:00 UTC (1 day ago):

TAF YMML 182300Z 1900/2006 36025G36KT CAVOK FM190400 33020G32KT 9999 -SHRA FEW025 BKN035 FM190600 29012KT 9999 -SHRA SCT020 BKN030 FM191200 29014KT 9999 SCT035 FM200100 26020G35KT 9999 -SHRA SCT030 SCT045 INTER 1906/1910 4000 SHRA BKN020